Time;durP1;ratioP1;P1;durP2;ratioP2;P2;SDS_P1;SDS_P2;PMS_P1;PMS_P2;Temp;Humidity;BMP_temperature;BMP_pressure;BME280_temperature;BME280_humidity;BME280_pressure;Samples;Min_cycle;Max_cycle;Signal;HPM_P1;HPM_P2
2023/05/14 00:01:45;;;;;;;12.02;6.55;;;18.90;74.40;;;;;;5116969;28;20027;-79
2023/05/14 00:04:11;;;;;;;7.43;5.05;;;18.80;74.50;;;;;;5098872;28;20096;-79
2023/05/14 00:06:37;;;;;;;11.05;5.85;;;18.50;75.10;;;;;;5116932;28;20118;-79
2023/05/14 00:09:03;;;;;;;12.60;7.22;;;18.50;75.50;;;;;;5098765;28;20361;-80
2023/05/14 00:11:29;;;;;;;7.15;5.80;;;18.50;75.60;;;;;;5118963;28;20031;-79
2023/05/14 00:13:54;;;;;;;10.98;5.97;;;18.40;75.50;;;;;;5101598;28;20036;-79
2023/05/14 00:16:20;;;;;;;5.90;4.55;;;18.40;75.60;;;;;;5099711;28;20383;-79
2023/05/14 00:18:46;;;;;;;6.80;3.90;;;18.50;75.60;;;;;;5100036;28;20027;-79
2023/05/14 00:21:11;;;;;;;5.60;4.22;;;18.60;75.40;;;;;;5118935;28;20035;-79
2023/05/14 00:23:37;;;;;;;9.52;5.95;;;18.80;75.10;;;;;;5116333;28;20031;-79
2023/05/14 00:26:03;;;;;;;10.15;6.70;;;18.80;74.70;;;;;;5118425;28;20067;-79
2023/05/14 00:28:29;;;;;;;10.18;5.97;;;18.80;74.80;;;;;;5116622;28;20115;-78
2023/05/14 00:30:55;;;;;;;8.88;6.07;;;18.70;74.90;;;;;;5115579;28;20028;-79
2023/05/14 00:33:21;;;;;;;7.18;5.65;;;18.50;75.10;;;;;;5116267;28;20023;-79
2023/05/14 00:35:48;;;;;;;9.35;6.95;;;18.40;75.70;;;;;;5115449;28;20038;-79
2023/05/14 00:38:15;;;;;;;8.43;5.93;;;18.30;75.90;;;;;;5096946;28;20043;-78
2023/05/14 00:40:44;;;;;;;6.13;4.80;;;18.20;76.20;;;;;;5097329;28;20032;-79
2023/05/14 00:43:10;;;;;;;6.03;4.70;;;18.30;76.40;;;;;;5097335;28;20027;-79
2023/05/14 00:45:36;;;;;;;4.38;3.97;;;18.40;76.30;;;;;;5114879;28;20387;-78
2023/05/14 00:48:02;;;;;;;8.48;4.95;;;18.50;76.10;;;;;;5115028;28;20027;-78
2023/05/14 00:50:28;;;;;;;10.77;6.03;;;18.60;75.90;;;;;;5096832;28;20031;-79
2023/05/14 00:52:54;;;;;;;7.82;5.57;;;18.60;75.80;;;;;;5115500;28;20036;-79
2023/05/14 00:55:20;;;;;;;11.73;6.05;;;18.70;75.60;;;;;;5113330;28;20034;-79
2023/05/14 00:57:46;;;;;;;11.38;6.25;;;18.60;75.60;;;;;;5079805;28;20032;-78
2023/05/14 01:00:12;;;;;;;7.45;5.60;;;18.60;75.60;;;;;;5096618;28;20077;-78
2023/05/14 01:02:38;;;;;;;13.18;7.25;;;18.60;75.70;;;;;;5096694;28;20034;-78
2023/05/14 01:05:04;;;;;;;11.52;7.55;;;18.50;75.90;;;;;;5096217;28;20039;-77
2023/05/14 01:07:33;;;;;;;7.72;6.32;;;18.30;76.40;;;;;;5096690;28;20035;-78
2023/05/14 01:10:04;;;;;;;5.78;4.95;;;18.00;77.30;;;;;;5114702;28;20046;-78
2023/05/14 01:12:43;;;;;;;6.07;3.35;;;18.00;77.80;;;;;;5115619;28;20062;-78
2023/05/14 01:15:12;;;;;;;5.20;3.85;;;18.20;77.80;;;;;;5116451;28;20095;-78
2023/05/14 01:17:42;;;;;;;5.65;4.65;;;18.30;77.40;;;;;;5115136;28;20028;-79
2023/05/14 01:20:08;;;;;;;11.65;6.82;;;18.40;77.10;;;;;;5114934;28;20106;-78
2023/05/14 01:22:34;;;;;;;13.40;6.95;;;18.50;77.00;;;;;;5114867;28;20084;-79
2023/05/14 01:24:59;;;;;;;10.35;5.72;;;18.40;77.10;;;;;;5114578;28;20118;-79
2023/05/14 01:27:58;;;;;;;8.70;5.72;;;18.30;77.20;;;;;;5114582;28;20032;-79
2023/05/14 01:30:38;;;;;;;10.43;6.75;;;18.30;77.60;;;;;;5049227;28;1108218;-78
2023/05/14 01:33:11;;;;;;;7.82;5.10;;;18.20;77.80;;;;;;5094900;28;20058;-78
2023/05/14 01:35:37;;;;;;;10.10;7.03;;;18.20;78.00;;;;;;5076718;28;20036;-78
2023/05/14 01:38:11;;;;;;;11.45;6.78;;;18.20;77.90;;;;;;5094778;28;20082;-78
2023/05/14 01:40:37;;;;;;;7.55;5.07;;;17.90;78.50;;;;;;5095086;28;20024;-79
2023/05/14 01:43:03;;;;;;;9.68;6.43;;;17.90;78.90;;;;;;5095399;28;20020;-79
2023/05/14 01:45:30;;;;;;;9.38;5.25;;;18.10;78.70;;;;;;5094827;28;20441;-79
2023/05/14 01:47:57;;;;;;;6.53;4.93;;;18.10;78.60;;;;;;5098401;28;20082;-79
2023/05/14 01:50:22;;;;;;;11.02;6.30;;;18.10;78.90;;;;;;5097676;28;20035;-79
2023/05/14 01:52:50;;;;;;;13.23;7.35;;;18.20;78.80;;;;;;5097412;28;20032;-79
2023/05/14 01:55:17;;;;;;;10.35;6.25;;;18.10;78.80;;;;;;5096722;28;20040;-79
2023/05/14 01:57:42;;;;;;;8.98;5.50;;;18.00;79.00;;;;;;5094995;28;20062;-79
2023/05/14 02:00:08;;;;;;;8.23;5.65;;;17.90;79.30;;;;;;5094943;28;20465;-78
2023/05/14 02:02:34;;;;;;;8.70;5.68;;;17.90;79.80;;;;;;5095280;28;20456;-79
2023/05/14 02:05:00;;;;;;;7.80;6.88;;;17.80;80.00;;;;;;5095562;28;20550;-79
2023/05/14 02:07:25;;;;;;;7.15;5.60;;;17.90;80.20;;;;;;5060837;28;20416;-79
2023/05/14 02:09:51;;;;;;;11.38;8.15;;;17.80;80.20;;;;;;5094276;28;20559;-78
2023/05/14 02:12:16;;;;;;;12.65;8.40;;;17.90;80.30;;;;;;5095418;28;20032;-79
2023/05/14 02:14:42;;;;;;;10.02;7.65;;;17.70;80.50;;;;;;5098287;28;20537;-79
2023/05/14 02:17:08;;;;;;;15.25;8.23;;;17.50;81.30;;;;;;5078185;28;20036;-78
2023/05/14 02:19:33;;;;;;;8.35;6.72;;;17.40;81.80;;;;;;5079433;28;20059;-79
2023/05/14 02:22:00;;;;;;;10.65;5.18;;;17.40;81.80;;;;;;5098286;28;20028;-79
2023/05/14 02:24:25;;;;;;;8.90;6.05;;;17.50;81.60;;;;;;5101345;28;20020;-79
2023/05/14 02:26:51;;;;;;;11.75;7.40;;;17.70;81.30;;;;;;5102982;28;20047;-79
2023/05/14 02:29:17;;;;;;;5.95;5.35;;;17.80;81.00;;;;;;5108989;28;20387;-79
2023/05/14 02:31:43;;;;;;;5.10;4.10;;;17.80;81.10;;;;;;5122046;28;20035;-78
2023/05/14 02:34:09;;;;;;;8.80;3.90;;;17.90;81.10;;;;;;5119208;28;20046;-78
2023/05/14 02:36:34;;;;;;;4.53;3.53;;;18.00;80.90;;;;;;5098130;28;20042;-78
2023/05/14 02:39:00;;;;;;;9.00;5.40;;;18.20;80.70;;;;;;5118035;28;20028;-79
2023/05/14 02:41:26;;;;;;;5.18;4.15;;;18.20;80.50;;;;;;5115854;28;20070;-78
2023/05/14 02:43:52;;;;;;;8.30;6.15;;;18.30;80.30;;;;;;5114331;28;20028;-79
2023/05/14 02:46:18;;;;;;;8.77;5.70;;;18.20;79.90;;;;;;5116147;28;20034;-79
2023/05/14 02:48:44;;;;;;;11.80;6.72;;;18.00;80.40;;;;;;5114779;28;20031;-79
2023/05/14 02:51:11;;;;;;;10.05;7.10;;;18.00;80.80;;;;;;5114437;28;20483;-78
2023/05/14 02:53:36;;;;;;;10.13;7.30;;;17.90;80.80;;;;;;5114537;28;20043;-78
2023/05/14 02:56:02;;;;;;;10.68;7.32;;;17.90;80.90;;;;;;5096374;28;20038;-79
2023/05/14 02:58:28;;;;;;;13.75;8.63;;;17.80;81.10;;;;;;5097019;28;20028;-79
2023/05/14 03:00:54;;;;;;;16.13;8.68;;;17.70;81.50;;;;;;5097019;28;20031;-79
2023/05/14 03:03:19;;;;;;;11.10;7.65;;;17.60;82.00;;;;;;5079552;28;20035;-78
2023/05/14 03:05:45;;;;;;;11.52;7.70;;;17.40;82.20;;;;;;5113938;28;20106;-78
2023/05/14 03:08:11;;;;;;;13.95;9.65;;;17.40;82.70;;;;;;5113664;28;20115;-79
2023/05/14 03:10:36;;;;;;;12.18;8.98;;;17.10;83.50;;;;;;5113833;28;20027;-78
2023/05/14 03:13:02;;;;;;;12.50;9.40;;;16.80;84.40;;;;;;5116429;28;20028;-79
2023/05/14 03:15:28;;;;;;;14.57;10.25;;;16.80;85.10;;;;;;5118401;28;20066;-78
2023/05/14 03:17:53;;;;;;;14.68;7.93;;;16.60;85.70;;;;;;5119857;28;20472;-78
2023/05/14 03:20:19;;;;;;;15.68;8.35;;;16.60;86.00;;;;;;5086791;28;20032;-79
2023/05/14 03:22:45;;;;;;;12.77;8.27;;;16.70;85.90;;;;;;5121399;28;20545;-78
2023/05/14 03:25:11;;;;;;;10.02;7.45;;;16.80;85.60;;;;;;5103360;28;20115;-78
2023/05/14 03:27:37;;;;;;;9.77;6.90;;;16.90;85.40;;;;;;5104489;28;20055;-78
2023/05/14 03:30:03;;;;;;;11.77;7.40;;;17.10;85.00;;;;;;5122374;28;20070;-78
2023/05/14 03:32:29;;;;;;;9.52;6.60;;;17.20;84.70;;;;;;5120826;28;20028;-78
2023/05/14 03:34:55;;;;;;;9.32;6.68;;;17.30;84.60;;;;;;5119843;28;20119;-78
2023/05/14 03:37:20;;;;;;;11.88;7.65;;;17.40;84.40;;;;;;5118376;28;20035;-78
2023/05/14 03:39:46;;;;;;;9.55;5.78;;;17.50;84.00;;;;;;5117038;28;20027;-78
2023/05/14 03:42:11;;;;;;;15.40;8.77;;;17.50;83.90;;;;;;5117712;28;20027;-78
2023/05/14 03:44:37;;;;;;;7.75;5.97;;;17.50;83.80;;;;;;5118288;28;20472;-78
2023/05/14 03:47:03;;;;;;;13.65;7.68;;;17.40;83.80;;;;;;5117876;28;20043;-78
2023/05/14 03:49:29;;;;;;;12.43;7.60;;;17.30;84.90;;;;;;5100652;28;20032;-78
2023/05/14 03:51:54;;;;;;;14.88;10.13;;;17.20;84.30;;;;;;5118253;28;20380;-78
2023/05/14 03:54:20;;;;;;;12.52;7.90;;;17.20;84.80;;;;;;5117631;28;20032;-78
2023/05/14 03:56:46;;;;;;;13.98;9.50;;;16.90;85.20;;;;;;5117445;28;20468;-78
2023/05/14 03:59:11;;;;;;;15.18;10.25;;;16.90;85.40;;;;;;5118137;28;20453;-78
2023/05/14 04:01:37;;;;;;;12.25;9.32;;;16.80;85.60;;;;;;5082336;28;20530;-78
2023/05/14 04:04:03;;;;;;;13.00;8.20;;;16.80;86.00;;;;;;5101142;28;20047;-78
2023/05/14 04:06:28;;;;;;;10.73;7.25;;;16.80;86.20;;;;;;5117982;28;20028;-78
2023/05/14 04:08:54;;;;;;;11.50;7.93;;;16.90;86.20;;;;;;5116931;28;20036;-77
2023/05/14 04:11:20;;;;;;;16.38;9.88;;;17.00;86.00;;;;;;5116974;28;20107;-77
2023/05/14 04:13:46;;;;;;;14.85;10.68;;;17.00;85.80;;;;;;5099295;28;20119;-78
2023/05/14 04:16:11;;;;;;;14.35;9.45;;;16.90;86.00;;;;;;5116044;28;20039;-78
2023/05/14 04:18:37;;;;;;;12.63;8.80;;;16.80;86.20;;;;;;5116762;28;20024;-78
2023/05/14 04:21:03;;;;;;;8.80;7.45;;;16.70;86.50;;;;;;5115482;28;20498;-78
2023/05/14 04:23:30;;;;;;;11.32;7.82;;;16.80;86.80;;;;;;5098371;28;20032;-78
2023/05/14 04:25:56;;;;;;;6.72;4.82;;;16.90;86.90;;;;;;5117155;28;20027;-78
2023/05/14 04:28:22;;;;;;;12.48;6.72;;;17.00;86.70;;;;;;5116981;28;20038;-79
2023/05/14 04:30:48;;;;;;;11.45;6.68;;;17.10;86.50;;;;;;5116286;28;20114;-77
2023/05/14 04:33:13;;;;;;;11.73;7.95;;;17.10;86.40;;;;;;5116457;28;20086;-78
2023/05/14 04:35:39;;;;;;;8.98;6.20;;;17.20;86.20;;;;;;5116564;28;20043;-78
2023/05/14 04:38:04;;;;;;;9.70;6.18;;;17.20;86.10;;;;;;5116485;28;20027;-78
2023/05/14 04:40:30;;;;;;;10.18;6.63;;;17.10;86.30;;;;;;5116319;28;20023;-78
2023/05/14 04:42:56;;;;;;;7.13;4.38;;;17.00;86.30;;;;;;5116010;28;20035;-78
2023/05/14 04:45:22;;;;;;;6.90;5.55;;;17.00;86.70;;;;;;5116460;28;20028;-78
2023/05/14 04:47:48;;;;;;;6.63;4.85;;;17.20;86.80;;;;;;5116887;28;20059;-78
2023/05/14 04:50:14;;;;;;;12.25;8.10;;;17.20;86.60;;;;;;5116519;28;20031;-78
2023/05/14 04:52:39;;;;;;;8.23;6.13;;;17.30;86.50;;;;;;5098482;28;20418;-78
2023/05/14 04:55:05;;;;;;;9.70;6.45;;;17.20;86.40;;;;;;5116277;28;20038;-78
2023/05/14 04:57:31;;;;;;;17.10;8.68;;;17.20;86.40;;;;;;5116197;28;20051;-78
2023/05/14 04:59:57;;;;;;;15.75;9.70;;;17.10;86.40;;;;;;5114956;28;20484;-78
2023/05/14 05:02:22;;;;;;;16.35;10.10;;;17.10;86.70;;;;;;5116301;28;20245;-78
2023/05/14 05:04:48;;;;;;;14.40;9.68;;;17.00;87.10;;;;;;5097798;28;20031;-79
2023/05/14 05:07:14;;;;;;;11.23;7.35;;;16.70;87.70;;;;;;5115399;28;20020;-78
2023/05/14 05:09:39;;;;;;;6.47;4.45;;;16.60;88.40;;;;;;5116349;28;20367;-78
2023/05/14 05:12:05;;;;;;;11.18;6.82;;;16.60;88.80;;;;;;5097899;28;20038;-78
2023/05/14 05:14:31;;;;;;;11.75;8.32;;;16.70;88.80;;;;;;5116203;28;20092;-78
2023/05/14 05:16:57;;;;;;;10.50;6.63;;;16.80;88.50;;;;;;5100391;28;20035;-78
2023/05/14 05:19:22;;;;;;;13.30;9.27;;;16.80;88.60;;;;;;5117056;28;20030;-78
2023/05/14 05:21:48;;;;;;;14.82;9.60;;;16.90;88.50;;;;;;5115966;28;20027;-79
2023/05/14 05:24:14;;;;;;;14.20;10.13;;;16.80;88.40;;;;;;5116349;28;20038;-78
2023/05/14 05:26:39;;;;;;;11.88;9.35;;;16.80;88.80;;;;;;5116197;28;20050;-79
2023/05/14 05:29:06;;;;;;;12.90;7.85;;;16.70;89.00;;;;;;5114081;28;20052;-78
2023/05/14 05:31:32;;;;;;;5.30;4.47;;;16.60;89.30;;;;;;5115548;28;20428;-78
2023/05/14 05:34:01;;;;;;;8.43;7.15;;;16.70;89.70;;;;;;5096834;28;20031;-78
2023/05/14 05:36:27;;;;;;;11.13;7.47;;;16.90;89.60;;;;;;5115034;28;20065;-78
2023/05/14 05:38:53;;;;;;;10.25;6.47;;;17.00;89.20;;;;;;5115079;28;20035;-78
2023/05/14 05:41:18;;;;;;;10.20;6.85;;;17.10;88.90;;;;;;5098213;28;20027;-78
2023/05/14 05:43:44;;;;;;;7.10;5.30;;;17.20;88.90;;;;;;5098986;28;20044;-78
2023/05/14 05:46:10;;;;;;;9.52;6.40;;;17.30;88.70;;;;;;5117418;28;20104;-78
2023/05/14 05:48:36;;;;;;;8.23;5.20;;;17.40;88.50;;;;;;5098401;28;20110;-79
2023/05/14 05:51:01;;;;;;;15.00;9.43;;;17.40;88.40;;;;;;5115663;28;20111;-78
2023/05/14 05:53:27;;;;;;;11.55;7.05;;;17.60;88.10;;;;;;5116513;28;20464;-78
2023/05/14 05:55:53;;;;;;;10.95;6.80;;;17.50;87.90;;;;;;5115188;28;20050;-78
2023/05/14 05:58:18;;;;;;;13.57;9.10;;;17.60;88.10;;;;;;5116038;28;20449;-79
2023/05/14 06:00:45;;;;;;;18.33;9.82;;;17.60;88.00;;;;;;5098320;28;20031;-79
2023/05/14 06:03:12;;;;;;;13.15;9.68;;;17.40;88.40;;;;;;5116824;28;20028;-78
2023/05/14 06:05:38;;;;;;;11.40;8.32;;;17.10;89.30;;;;;;5117732;28;20035;-78
2023/05/14 06:08:04;;;;;;;17.13;8.77;;;17.20;89.80;;;;;;5116045;28;20034;-78
2023/05/14 06:10:30;;;;;;;15.65;9.45;;;17.20;90.00;;;;;;5099354;28;20023;-78
2023/05/14 06:12:55;;;;;;;11.10;7.47;;;17.20;90.00;;;;;;5118622;28;20348;-78
2023/05/14 06:15:21;;;;;;;13.70;9.00;;;17.30;90.00;;;;;;5117973;28;20038;-78
2023/05/14 06:17:47;;;;;;;8.63;6.85;;;17.40;90.10;;;;;;5116117;28;20467;-79
2023/05/14 06:20:13;;;;;;;9.95;7.05;;;17.50;90.10;;;;;;5116522;28;20039;-79
2023/05/14 06:22:39;;;;;;;13.80;10.85;;;17.70;90.00;;;;;;5116071;28;20028;-79
2023/05/14 06:25:05;;;;;;;14.50;8.85;;;17.70;89.30;;;;;;5097291;28;20033;-78
2023/05/14 06:27:30;;;;;;;13.55;8.98;;;17.50;89.90;;;;;;5099422;28;20027;-78
2023/05/14 06:29:56;;;;;;;10.50;7.53;;;17.50;90.20;;;;;;5115781;28;20139;-78
2023/05/14 06:32:22;;;;;;;9.60;8.32;;;17.60;90.20;;;;;;5096700;28;20184;-78
2023/05/14 06:34:47;;;;;;;13.52;7.75;;;17.70;89.90;;;;;;5097177;28;20027;-79
2023/05/14 06:37:13;;;;;;;9.95;7.45;;;17.70;89.80;;;;;;5114621;28;20078;-78
2023/05/14 06:39:45;;;;;;;13.75;7.75;;;17.70;90.00;;;;;;5115803;28;20361;-78
2023/05/14 06:42:10;;;;;;;13.50;7.90;;;17.70;90.20;;;;;;5117187;28;20036;-78
2023/05/14 06:44:36;;;;;;;13.40;8.55;;;17.80;90.30;;;;;;5115946;28;20364;-78
2023/05/14 06:47:02;;;;;;;10.20;6.80;;;17.90;90.50;;;;;;5080447;28;20032;-77
2023/05/14 06:49:27;;;;;;;14.57;9.07;;;18.00;90.50;;;;;;5115240;28;20063;-77
2023/05/14 06:51:53;;;;;;;10.35;7.30;;;18.10;90.00;;;;;;5116333;28;20031;-77
2023/05/14 06:54:19;;;;;;;5.47;4.78;;;18.10;90.20;;;;;;5119726;28;20034;-77
2023/05/14 06:56:45;;;;;;;13.27;6.93;;;18.20;90.30;;;;;;5101258;28;20032;-77
2023/05/14 06:59:11;;;;;;;13.32;7.03;;;18.40;90.10;;;;;;5101883;28;20028;-78
2023/05/14 07:01:36;;;;;;;10.13;6.72;;;18.50;90.00;;;;;;5119768;28;20028;-77
2023/05/14 07:04:02;;;;;;;9.18;6.25;;;18.60;89.60;;;;;;5120409;28;20422;-77
2023/05/14 07:06:28;;;;;;;7.38;5.40;;;18.80;89.30;;;;;;5102701;28;20391;-77
2023/05/14 07:08:53;;;;;;;8.77;5.65;;;18.90;89.20;;;;;;5120515;28;20039;-77
2023/05/14 07:11:19;;;;;;;12.25;6.35;;;19.00;88.50;;;;;;5121152;28;20032;-78
2023/05/14 07:13:44;;;;;;;11.07;6.80;;;19.10;88.40;;;;;;5121087;28;20061;-77
2023/05/14 07:16:10;;;;;;;8.13;5.13;;;19.10;87.70;;;;;;5121771;28;20081;-77
2023/05/14 07:18:36;;;;;;;10.13;6.57;;;19.20;87.30;;;;;;5120843;28;20032;-77
2023/05/14 07:21:05;;;;;;;11.10;6.85;;;19.20;87.50;;;;;;5123273;28;20042;-78
2023/05/14 07:23:35;;;;;;;11.68;6.93;;;19.20;86.90;;;;;;5103662;28;20031;-77
2023/05/14 07:26:02;;;;;;;12.05;6.90;;;19.10;86.40;;;;;;5103240;28;20038;-77
2023/05/14 07:28:27;;;;;;;12.15;7.78;;;19.10;87.30;;;;;;5102160;28;20094;-77
2023/05/14 07:30:53;;;;;;;7.55;5.80;;;19.10;88.10;;;;;;5121411;28;20379;-78
2023/05/14 07:33:18;;;;;;;5.68;4.15;;;19.10;89.10;;;;;;5120443;28;20050;-77
2023/05/14 07:35:44;;;;;;;7.60;5.13;;;19.10;88.30;;;;;;5120395;28;20372;-78
2023/05/14 07:38:10;;;;;;;10.30;5.20;;;19.20;87.60;;;;;;5121884;28;20035;-77
2023/05/14 07:40:35;;;;;;;11.02;6.75;;;19.20;87.20;;;;;;5120938;28;20027;-77
2023/05/14 07:43:01;;;;;;;8.95;6.18;;;19.30;87.50;;;;;;5120249;28;20028;-77
2023/05/14 07:45:27;;;;;;;9.43;5.38;;;19.30;87.30;;;;;;5101505;28;20110;-77
2023/05/14 07:47:52;;;;;;;9.60;5.35;;;19.30;87.30;;;;;;5100725;28;20039;-77
2023/05/14 07:50:18;;;;;;;8.60;5.25;;;19.40;87.70;;;;;;5119373;28;20027;-77
2023/05/14 07:52:44;;;;;;;12.80;6.05;;;19.50;86.80;;;;;;5118932;28;20051;-77
2023/05/14 07:55:11;;;;;;;8.63;5.15;;;19.60;85.60;;;;;;5118750;28;20038;-77
2023/05/14 07:57:37;;;;;;;9.68;5.45;;;19.70;85.20;;;;;;5120211;28;20031;-77
2023/05/14 08:00:06;;;;;;;7.55;5.10;;;19.80;84.20;;;;;;5119323;28;20027;-77
2023/05/14 08:02:32;;;;;;;10.43;5.55;;;19.90;83.60;;;;;;5118315;28;20072;-77
2023/05/14 08:04:58;;;;;;;7.30;4.20;;;20.00;84.90;;;;;;5100743;28;20562;-77
2023/05/14 08:07:23;;;;;;;4.72;3.70;;;20.10;85.60;;;;;;5100889;28;20030;-77
2023/05/14 08:09:49;;;;;;;5.47;3.95;;;20.30;84.90;;;;;;5119758;28;20400;-77
2023/05/14 08:12:15;;;;;;;9.43;3.80;;;20.50;84.40;;;;;;5118220;28;20036;-77
2023/05/14 08:14:41;;;;;;;9.27;4.05;;;20.60;84.10;;;;;;5120022;28;20028;-77
2023/05/14 08:17:06;;;;;;;11.27;3.80;;;20.70;83.60;;;;;;5117515;28;20084;-77
2023/05/14 08:19:32;;;;;;;7.38;4.10;;;20.80;81.90;;;;;;5084544;28;20028;-77
2023/05/14 08:21:58;;;;;;;5.63;4.13;;;20.80;82.00;;;;;;5118593;28;20062;-77
2023/05/14 08:24:23;;;;;;;5.22;4.00;;;20.80;82.10;;;;;;5101246;28;20498;-77
2023/05/14 08:26:49;;;;;;;8.02;3.20;;;20.90;81.40;;;;;;5101093;28;20062;-77
2023/05/14 08:29:15;;;;;;;9.30;3.30;;;20.90;80.90;;;;;;5118960;28;20059;-77
2023/05/14 08:31:41;;;;;;;6.18;3.00;;;21.00;83.20;;;;;;5120353;28;20141;-75
2023/05/14 08:34:06;;;;;;;7.10;3.10;;;21.20;82.00;;;;;;5121717;28;20036;-77
2023/05/14 08:36:32;;;;;;;3.95;2.45;;;21.30;80.40;;;;;;5103252;28;20364;-77
2023/05/14 08:38:57;;;;;;;5.90;2.58;;;21.50;80.40;;;;;;5121231;28;20471;-77
2023/05/14 08:41:24;;;;;;;8.70;2.40;;;21.60;75.30;;;;;;5103037;28;20035;-77
2023/05/14 08:44:31;;;;;;;6.05;2.20;;;21.60;73.80;;;;;;5086799;28;20043;-76
2023/05/14 08:46:58;;;;;;;6.93;2.20;;;21.60;74.60;;;;;;5001823;28;20030;-77
2023/05/14 08:49:29;;;;;;;5.25;2.17;;;21.60;73.90;;;;;;5084036;28;20480;-76
2023/05/14 08:51:55;;;;;;;6.63;2.20;;;21.60;73.40;;;;;;5119013;28;20027;-77
2023/05/14 08:54:23;;;;;;;3.28;1.67;;;21.50;71.20;;;;;;5118885;28;20391;-77
2023/05/14 08:56:50;;;;;;;7.07;2.20;;;21.50;71.50;;;;;;5119817;28;20110;-76
2023/05/14 08:59:16;;;;;;;3.30;1.77;;;21.50;70.10;;;;;;5119840;28;20016;-78
2023/05/14 09:01:49;;;;;;;2.85;1.70;;;21.50;70.10;;;;;;5118889;28;20024;-78
2023/05/14 09:04:18;;;;;;;6.07;2.30;;;21.50;70.60;;;;;;5119376;28;20413;-78
2023/05/14 09:06:47;;;;;;;5.80;1.92;;;21.50;72.10;;;;;;5118896;28;20139;-77
2023/05/14 09:09:13;;;;;;;4.95;2.03;;;21.60;71.90;;;;;;5101934;28;20023;-78
2023/05/14 09:11:45;;;;;;;3.35;2.05;;;21.70;71.90;;;;;;5120081;28;20367;-77
2023/05/14 09:14:11;;;;;;;5.75;1.58;;;21.80;72.50;;;;;;5120833;28;20035;-77
2023/05/14 09:16:38;;;;;;;5.13;1.77;;;21.90;72.00;;;;;;5103004;28;20541;-78
2023/05/14 09:19:05;;;;;;;5.03;2.08;;;22.10;71.50;;;;;;5122475;28;20030;-77
2023/05/14 09:21:32;;;;;;;6.10;2.42;;;22.30;70.50;;;;;;5103715;28;20024;-77
2023/05/14 09:23:57;;;;;;;3.80;1.70;;;22.40;68.60;;;;;;5105473;28;20035;-77
2023/05/14 09:26:27;;;;;;;2.92;1.75;;;22.40;67.80;;;;;;5123439;28;20451;-78
2023/05/14 09:29:00;;;;;;;4.10;1.73;;;22.40;68.50;;;;;;5101988;28;20055;-77
2023/05/14 09:31:30;;;;;;;5.38;1.50;;;22.60;67.90;;;;;;5103373;28;20032;-78
2023/05/14 09:33:57;;;;;;;3.17;1.70;;;22.80;67.40;;;;;;5103916;28;20030;-78
2023/05/14 09:36:23;;;;;;;5.72;1.67;;;22.80;66.20;;;;;;5104854;28;20031;-77
2023/05/14 09:38:50;;;;;;;6.03;1.60;;;23.00;65.60;;;;;;5086905;28;20062;-77
2023/05/14 09:41:15;;;;;;;4.18;1.73;;;23.00;64.80;;;;;;5105871;28;20016;-78
2023/05/14 09:43:41;;;;;;;3.20;2.20;;;23.10;64.70;;;;;;5106407;28;20067;-78
2023/05/14 09:46:07;;;;;;;6.45;1.88;;;23.10;62.00;;;;;;5105702;28;20036;-78
2023/05/14 09:48:33;;;;;;;3.65;1.65;;;23.10;62.80;;;;;;5070614;28;20424;-78
2023/05/14 09:50:58;;;;;;;4.38;1.75;;;23.20;63.30;;;;;;5102165;28;20028;-77
2023/05/14 09:53:24;;;;;;;6.15;1.90;;;23.30;62.30;;;;;;5105516;28;20025;-77
2023/05/14 09:55:50;;;;;;;2.97;1.35;;;23.10;61.90;;;;;;5103288;28;20052;-78
2023/05/14 09:58:16;;;;;;;4.80;2.00;;;23.00;63.90;;;;;;5106274;28;20066;-78
2023/05/14 10:00:44;;;;;;;3.63;2.33;;;23.00;68.20;;;;;;5086673;28;20028;-75
2023/05/14 10:03:13;;;;;;;3.22;1.60;;;23.20;66.00;;;;;;5095802;28;20026;-76
2023/05/14 10:05:40;;;;;;;8.27;2.50;;;23.30;65.00;;;;;;5095553;28;20525;-75
2023/05/14 10:08:35;;;;;;;4.78;1.80;;;23.40;64.50;;;;;;5099615;28;20028;-75
2023/05/14 10:11:05;;;;;;;3.58;1.75;;;23.40;62.90;;;;;;5070739;28;20024;-77
2023/05/14 10:13:38;;;;;;;3.83;1.90;;;23.40;63.50;;;;;;5107774;28;20107;-78
2023/05/14 10:16:20;;;;;;;2.88;1.88;;;23.70;63.60;;;;;;5107124;28;20036;-78
2023/05/14 10:18:48;;;;;;;;;;;23.90;62.90;;;;;;5083231;28;20027;-75
2023/05/14 10:21:16;;;;;;;2.30;1.38;;;23.90;58.10;;;;;;5082684;28;19995;-76
2023/05/14 10:23:42;;;;;;;5.55;1.55;;;23.70;57.90;;;;;;5080890;28;20046;-76
2023/05/14 10:26:09;;;;;;;6.40;1.55;;;23.70;57.30;;;;;;5101731;28;20028;-76
2023/05/14 10:28:35;;;;;;;4.57;1.15;;;23.50;55.70;;;;;;5103482;28;20032;-76
2023/05/14 10:31:01;;;;;;;4.43;1.38;;;23.20;55.60;;;;;;5120332;28;20468;-76
2023/05/14 10:33:27;;;;;;;3.80;1.30;;;23.00;56.10;;;;;;5117567;28;20023;-76
2023/05/14 10:36:06;;;;;;;3.33;1.52;;;22.90;56.70;;;;;;5119694;28;20198;-76
2023/05/14 10:38:36;;;;;;;2.13;1.30;;;22.80;54.90;;;;;;5117696;28;20101;-76
2023/05/14 10:41:03;;;;;;;3.10;1.48;;;22.60;55.50;;;;;;5103698;28;20544;-76
2023/05/14 10:43:29;;;;;;;4.45;1.17;;;22.50;56.00;;;;;;5104600;28;20050;-75
2023/05/14 10:45:56;;;;;;;4.63;1.30;;;22.50;55.90;;;;;;5103122;28;20040;-76
2023/05/14 10:48:23;;;;;;;3.05;1.50;;;22.50;57.10;;;;;;5085164;28;20034;-76
2023/05/14 10:50:52;;;;;;;3.92;1.30;;;22.50;57.80;;;;;;5119762;28;20484;-76
2023/05/14 10:53:19;;;;;;;3.15;1.40;;;22.50;55.20;;;;;;5119930;28;20051;-76
2023/05/14 10:55:44;;;;;;;5.72;1.15;;;22.40;55.50;;;;;;5100432;28;20150;-76
2023/05/14 10:58:11;;;;;;;4.63;1.20;;;22.40;55.60;;;;;;5115446;28;20424;-76
2023/05/14 11:00:37;;;;;;;3.92;1.40;;;22.30;55.40;;;;;;5119487;28;20106;-77
2023/05/14 11:03:05;;;;;;;2.47;1.48;;;22.30;56.60;;;;;;5122052;28;20108;-76
2023/05/14 11:05:31;;;;;;;4.20;1.30;;;22.30;56.20;;;;;;5104991;28;20077;-77
2023/05/14 11:07:58;;;;;;;2.35;1.10;;;22.30;56.10;;;;;;5122579;28;20036;-76
2023/05/14 11:10:30;;;;;;;1.95;1.00;;;22.40;55.50;;;;;;5106722;28;20114;-77
2023/05/14 11:12:56;;;;;;;2.25;1.05;;;22.40;55.40;;;;;;5121700;28;20455;-77
2023/05/14 11:15:24;;;;;;;2.90;1.10;;;22.40;55.20;;;;;;5121289;28;20059;-76
2023/05/14 11:17:51;;;;;;;3.50;1.20;;;22.50;54.70;;;;;;5102047;28;20044;-77
2023/05/14 11:20:17;;;;;;;3.25;1.55;;;22.50;54.90;;;;;;5102304;28;20448;-77
2023/05/14 11:22:44;;;;;;;6.78;1.10;;;22.50;55.20;;;;;;5120747;28;20049;-77
2023/05/14 11:25:13;;;;;;;3.03;1.30;;;22.50;55.10;;;;;;5102462;28;20032;-77
2023/05/14 11:27:40;;;;;;;2.90;1.27;;;22.50;55.50;;;;;;5118122;28;20024;-77
2023/05/14 11:30:16;;;;;;;4.72;1.70;;;22.50;55.60;;;;;;5101154;28;20111;-76
2023/05/14 11:32:44;;;;;;;2.00;1.20;;;22.50;55.00;;;;;;5117321;28;20043;-77
2023/05/14 11:35:10;;;;;;;3.92;1.73;;;22.50;55.40;;;;;;5117586;28;20023;-77
2023/05/14 11:37:35;;;;;;;3.63;1.85;;;22.50;56.70;;;;;;5118821;28;20039;-77
2023/05/14 11:40:01;;;;;;;2.50;1.27;;;22.40;57.60;;;;;;5122645;28;20027;-77
2023/05/14 11:42:27;;;;;;;1.67;1.20;;;22.30;56.70;;;;;;5105300;28;20032;-77
2023/05/14 11:44:53;;;;;;;4.60;1.38;;;22.30;56.40;;;;;;5122285;28;20055;-77
2023/05/14 11:47:20;;;;;;;2.95;1.20;;;22.50;56.90;;;;;;5104380;28;20027;-76
2023/05/14 11:49:47;;;;;;;2.10;1.25;;;22.60;58.20;;;;;;5086758;28;20407;-77
2023/05/14 11:52:14;;;;;;;3.78;1.67;;;22.70;57.80;;;;;;5103963;28;20053;-77
2023/05/14 11:54:41;;;;;;;4.25;1.67;;;22.70;61.40;;;;;;5103791;28;20043;-77
2023/05/14 11:57:12;;;;;;;2.90;1.70;;;22.80;62.80;;;;;;5119375;28;20102;-78
2023/05/14 11:59:38;;;;;;;3.85;1.83;;;22.90;66.00;;;;;;5098642;28;20058;-78
2023/05/14 12:02:07;;;;;;;4.95;1.88;;;23.10;65.50;;;;;;5098805;28;20039;-78
2023/05/14 12:04:33;;;;;;;6.00;2.00;;;23.40;65.60;;;;;;5099222;28;20076;-78
2023/05/14 12:06:59;;;;;;;2.30;1.67;;;23.70;64.00;;;;;;5099078;28;20402;-78
2023/05/14 12:09:25;;;;;;;3.03;1.48;;;23.70;61.70;;;;;;5117294;28;20028;-78
2023/05/14 12:11:51;;;;;;;2.53;1.48;;;23.60;59.50;;;;;;5116430;28;20046;-78
2023/05/14 12:14:23;;;;;;;3.55;1.55;;;23.50;58.90;;;;;;5115564;28;20463;-78
2023/05/14 12:16:50;;;;;;;6.30;2.15;;;23.40;58.40;;;;;;5116884;28;20023;-78
2023/05/14 12:19:20;;;;;;;3.00;1.63;;;23.40;58.20;;;;;;5098511;28;20028;-78
2023/05/14 12:21:47;;;;;;;3.03;1.35;;;23.30;58.30;;;;;;5115008;28;20456;-79
2023/05/14 12:24:14;;;;;;;3.35;1.52;;;23.30;56.80;;;;;;5116539;28;20028;-78
2023/05/14 12:26:44;;;;;;;1.95;1.50;;;23.20;56.20;;;;;;5116953;28;20031;-78
2023/05/14 12:29:12;;;;;;;3.13;1.40;;;23.10;55.90;;;;;;5116252;28;20047;-78
2023/05/14 12:31:47;;;;;;;2.47;1.50;;;23.10;57.30;;;;;;5116317;28;20460;-78
2023/05/14 12:34:14;;;;;;;1.77;1.23;;;23.10;57.00;;;;;;5098534;28;20071;-78
2023/05/14 12:36:40;;;;;;;1.65;1.38;;;23.10;57.50;;;;;;5098249;28;20038;-79
2023/05/14 12:39:06;;;;;;;2.15;1.30;;;23.20;57.10;;;;;;5115510;28;20148;-78
2023/05/14 12:41:32;;;;;;;2.22;1.30;;;23.40;56.90;;;;;;5116419;28;20464;-78